Time;durP1;ratioP1;P1;durP2;ratioP2;P2;SDS_P1;SDS_P2;PMS_P1;PMS_P2;Temp;Humidity;BMP_temperature;BMP_pressure;BME280_temperature;BME280_humidity;BME280_pressure;Samples;Min_cycle;Max_cycle;Signal;HPM_P1;HPM_P2
2022/05/16 00:01:06;;;;;;;9.40;3.75;;;;;;;17.66;52.12;101337.66;7391376;19;20078;-59
2022/05/16 00:03:35;;;;;;;10.52;4.30;;;;;;;17.64;52.02;101345.72;7393944;19;20021;-59
2022/05/16 00:06:04;;;;;;;9.38;3.90;;;;;;;17.57;52.34;101347.91;7393738;19;20014;-60
2022/05/16 00:08:33;;;;;;;11.18;4.53;;;;;;;17.47;52.85;101345.00;7393364;19;20490;-59
2022/05/16 00:11:05;;;;;;;9.85;4.45;;;;;;;17.50;52.93;101343.13;7392042;19;20014;-60
2022/05/16 00:13:34;;;;;;;9.93;3.80;;;;;;;17.58;52.76;101336.38;7393401;19;20019;-62
2022/05/16 00:16:03;;;;;;;7.72;3.83;;;;;;;17.45;53.09;101340.75;7393129;19;20700;-61
2022/05/16 00:18:32;;;;;;;12.10;4.35;;;;;;;17.58;52.76;101338.16;7392749;19;20490;-61
2022/05/16 00:21:01;;;;;;;8.98;4.30;;;;;;;17.42;53.38;101341.81;7392306;19;20014;-62
2022/05/16 00:23:30;;;;;;;16.33;4.60;;;;;;;17.43;53.14;101337.38;7392274;19;20033;-62
2022/05/16 00:25:59;;;;;;;10.00;4.15;;;;;;;17.50;53.03;101328.06;7390995;19;20767;-61
2022/05/16 00:28:30;;;;;;;11.65;4.22;;;;;;;17.47;53.25;101318.50;7392180;19;20018;-61
2022/05/16 00:30:59;;;;;;;13.65;4.50;;;;;;;17.44;53.36;101315.22;7391602;19;20018;-61
2022/05/16 00:33:28;;;;;;;11.75;4.25;;;;;;;17.35;53.68;101316.69;7391987;19;20024;-64
2022/05/16 00:35:57;;;;;;;10.95;4.38;;;;;;;17.30;53.83;101316.13;7390002;19;20482;-62
2022/05/16 00:38:26;;;;;;;8.65;4.10;;;;;;;17.20;54.25;101310.56;7391646;19;20025;-61
2022/05/16 00:40:55;;;;;;;9.55;3.95;;;;;;;17.21;54.31;101309.63;7391452;19;20022;-61
2022/05/16 00:43:42;;;;;;;14.02;4.65;;;;;;;17.39;53.78;101307.56;7391534;19;20041;-59
2022/05/16 00:46:19;;;;;;;11.15;3.92;;;;;;;17.19;54.19;101306.19;7390161;19;20026;-59
2022/05/16 00:48:48;;;;;;;12.18;4.10;;;;;;;17.14;54.60;101307.47;7390771;19;20014;-61
2022/05/16 00:51:21;;;;;;;8.15;3.97;;;;;;;17.01;55.11;101307.41;7390863;19;20027;-60
2022/05/16 00:53:53;;;;;;;12.43;4.30;;;;;;;17.09;54.68;101311.25;7389992;19;20010;-61
2022/05/16 00:56:22;;;;;;;14.07;4.63;;;;;;;17.08;54.75;101306.91;7391156;19;20019;-59
2022/05/16 00:58:51;;;;;;;11.75;4.57;;;;;;;17.07;54.94;101299.06;7391111;19;20017;-61
2022/05/16 01:06:48;;;;;;;12.55;4.40;;;;;;;16.86;55.83;101291.50;7391113;19;20043;-60
2022/05/16 01:09:17;;;;;;;13.07;4.85;;;;;;;16.87;55.61;101292.38;7389415;19;20026;-62
2022/05/16 01:11:46;;;;;;;10.82;5.13;;;;;;;16.82;55.68;101287.38;7391121;19;20023;-61
2022/05/16 01:14:43;;;;;;;12.30;4.22;;;;;;;16.75;55.90;101286.06;7387079;19;20025;-61
2022/05/16 01:17:15;;;;;;;14.80;4.75;;;;;;;16.78;55.97;101281.41;7390371;19;20029;-60
2022/05/16 01:19:45;;;;;;;11.30;4.40;;;;;;;16.82;55.67;101281.19;7389837;19;20376;-60
2022/05/16 01:22:27;;;;;;;12.48;4.55;;;;;;;16.68;56.17;101271.50;7390730;19;20022;-61
2022/05/16 01:25:06;;;;;;;11.48;4.40;;;;;;;16.70;56.17;101272.25;7391334;19;20082;-62
2022/05/16 01:27:47;;;;;;;11.57;4.00;;;;;;;16.77;56.11;101279.69;7391819;19;20010;-62
2022/05/16 01:30:18;;;;;;;12.52;5.00;;;;;;;16.72;55.94;101278.28;7388221;19;20524;-61
2022/05/16 01:32:47;;;;;;;11.02;4.40;;;;;;;16.70;56.33;101278.38;7389889;19;20015;-61
2022/05/16 01:35:20;;;;;;;10.88;4.40;;;;;;;16.84;56.08;101288.09;7389291;19;20014;-61
2022/05/16 01:40:33;;;;;;;9.80;4.88;;;;;;;16.73;56.24;101283.47;7389493;19;20014;-61
2022/05/16 01:43:02;;;;;;;12.57;4.43;;;;;;;16.67;56.28;101275.09;7390298;19;20030;-60
2022/05/16 01:45:31;;;;;;;13.55;4.78;;;;;;;16.54;56.75;101272.38;7388491;19;20019;-61
2022/05/16 01:48:00;;;;;;;10.20;4.50;;;;;;;16.68;56.48;101279.44;7390154;19;20014;-62
2022/05/16 01:50:29;;;;;;;10.65;4.40;;;;;;;16.66;56.49;101281.31;7388105;19;20010;-60
2022/05/16 01:53:01;;;;;;;9.73;4.28;;;;;;;16.72;56.37;101270.34;7389187;19;20022;-59
2022/05/16 01:55:30;;;;;;;9.95;4.18;;;;;;;16.50;57.01;101268.19;7387922;19;20049;-59
2022/05/16 01:57:59;;;;;;;12.93;4.70;;;;;;;16.57;57.03;101262.41;7389459;19;20022;-60
2022/05/16 02:00:28;;;;;;;10.45;4.22;;;;;;;16.41;57.30;101265.19;7388723;19;20018;-62
2022/05/16 02:02:57;;;;;;;11.23;4.38;;;;;;;16.43;57.28;101258.00;7389502;19;20014;-56
2022/05/16 02:05:26;;;;;;;9.15;4.35;;;;;;;16.34;57.32;101258.56;7388086;19;20531;-61
2022/05/16 02:07:56;;;;;;;11.82;4.80;;;;;;;16.41;57.37;101259.03;7389461;19;20010;-58
2022/05/16 02:10:28;;;;;;;8.95;4.35;;;;;;;16.50;57.34;101261.09;7386182;19;20029;-57
2022/05/16 02:12:59;;;;;;;;;;;;;;;16.48;57.13;101255.06;7388758;19;20014;-60
2022/05/16 02:15:31;;;;;;;10.40;4.50;;;;;;;16.45;57.26;101244.69;7387947;19;20336;-59
2022/05/16 02:18:01;;;;;;;12.35;4.60;;;;;;;16.40;57.39;101234.38;7388721;19;20037;-61
2022/05/16 02:20:31;;;;;;;13.93;4.53;;;;;;;16.46;57.43;101238.44;7388616;19;20023;-60
2022/05/16 02:25:45;;;;;;;10.93;4.55;;;;;;;16.36;57.63;101234.66;7391358;19;20260;-62
2022/05/16 02:28:17;;;;;;;14.85;4.82;;;;;;;16.33;57.83;101227.75;7396330;19;20486;-61
2022/05/16 02:30:47;;;;;;;11.05;4.60;;;;;;;16.40;57.68;101233.53;7393480;19;20413;-59
2022/05/16 02:33:18;;;;;;;11.30;5.00;;;;;;;16.26;58.00;101221.16;7396436;19;20033;-62
2022/05/16 02:35:49;;;;;;;10.15;5.00;;;;;;;16.27;58.06;101218.41;7394604;19;20014;-62
2022/05/16 02:38:20;;;;;;;9.93;4.82;;;;;;;16.33;58.21;101213.69;7396584;19;20057;-62
2022/05/16 02:40:52;;;;;;;14.73;5.07;;;;;;;16.19;58.10;101212.78;7396482;19;20027;-61
2022/05/16 02:43:21;;;;;;;13.63;5.10;;;;;;;16.21;58.25;101204.75;7408177;19;20010;-62
2022/05/16 02:45:49;;;;;;;11.77;4.93;;;;;;;16.17;58.54;101206.72;7410825;19;20018;-61
2022/05/16 02:48:18;;;;;;;13.27;5.32;;;;;;;16.18;58.32;101205.78;7411083;19;20015;-61
2022/05/16 02:50:47;;;;;;;11.82;5.55;;;;;;;16.19;58.54;101204.84;7408425;19;20029;-61
2022/05/16 02:53:16;;;;;;;11.38;5.28;;;;;;;16.16;58.65;101210.31;7409097;19;20019;-62
2022/05/16 02:55:45;;;;;;;15.13;5.40;;;;;;;16.00;59.02;101207.75;7397852;19;20018;-62
2022/05/16 02:58:17;;;;;;;11.93;5.47;;;;;;;16.10;58.77;101202.75;7397800;19;20026;-60
2022/05/16 03:00:46;;;;;;;11.13;5.32;;;;;;;16.01;59.19;101205.97;7395330;19;20011;-62
2022/05/16 03:03:15;;;;;;;11.50;5.50;;;;;;;15.97;59.26;101207.94;7397509;19;20010;-60
2022/05/16 03:05:43;;;;;;;13.82;4.85;;;;;;;15.99;59.45;101205.19;7393602;19;20014;-60
2022/05/16 03:08:13;;;;;;;11.45;4.82;;;;;;;16.08;59.11;101199.38;7394877;19;20021;-60
2022/05/16 03:10:41;;;;;;;12.27;5.88;;;;;;;15.94;59.64;101200.19;7391357;19;20018;-62
2022/05/16 03:13:10;;;;;;;12.77;5.65;;;;;;;15.91;59.70;101195.94;7394439;19;20011;-60
2022/05/16 03:15:42;;;;;;;12.23;4.95;;;;;;;15.87;59.81;101189.13;7392453;19;20014;-60
2022/05/16 03:18:11;;;;;;;13.50;5.78;;;;;;;15.82;60.07;101191.22;7394733;19;20015;-59
2022/05/16 03:20:40;;;;;;;11.70;5.40;;;;;;;15.75;60.21;101184.59;7393476;19;20027;-61
2022/05/16 03:23:08;;;;;;;12.68;5.45;;;;;;;15.80;60.13;101179.03;7394486;19;20087;-59
2022/05/16 03:25:37;;;;;;;13.13;5.13;;;;;;;15.78;60.31;101181.75;7392151;19;20070;-60
2022/05/16 03:28:06;;;;;;;11.38;5.28;;;;;;;15.80;60.12;101176.41;7394171;19;20018;-56
2022/05/16 03:30:36;;;;;;;14.25;5.30;;;;;;;15.73;60.56;101181.16;7391809;19;20345;-60
2022/05/16 03:33:08;;;;;;;12.80;5.18;;;;;;;15.71;60.56;101183.91;7394047;19;20025;-61
2022/05/16 03:35:37;;;;;;;12.55;5.53;;;;;;;15.67;60.70;101177.09;7391620;19;20030;-60
2022/05/16 03:38:06;;;;;;;15.02;5.90;;;;;;;15.65;60.80;101178.16;7392003;19;20025;-62
2022/05/16 03:40:42;;;;;;;15.65;5.45;;;;;;;15.66;60.84;101183.34;7392991;19;20011;-62
2022/05/16 03:43:11;;;;;;;10.13;5.47;;;;;;;15.70;60.90;101182.22;7393949;19;20018;-61
2022/05/16 03:45:40;;;;;;;11.93;5.63;;;;;;;15.73;60.89;101173.25;7391272;19;20043;-66
2022/05/16 03:48:12;;;;;;;9.20;5.07;;;;;;;15.67;61.02;101171.81;7396076;19;20006;-66
2022/05/16 03:50:42;;;;;;;8.93;5.20;;;;;;;15.62;61.29;101179.19;7391869;19;20082;-66
2022/05/16 03:53:11;;;;;;;12.40;6.00;;;;;;;15.68;61.13;101168.25;7393107;19;20022;-65
2022/05/16 03:55:40;;;;;;;14.25;5.95;;;;;;;15.55;61.56;101176.06;7392514;19;20060;-66
2022/05/16 03:58:09;;;;;;;13.02;5.43;;;;;;;15.55;61.63;101176.06;7393447;19;20013;-65
2022/05/16 04:00:38;;;;;;;10.48;5.20;;;;;;;15.68;61.22;101180.63;7392945;19;20026;-65
2022/05/16 04:03:07;;;;;;;15.63;7.07;;;;;;;15.75;60.96;101180.13;7393604;19;20118;-63
2022/05/16 04:05:39;;;;;;;11.98;5.72;;;;;;;15.65;61.21;101179.00;7393050;19;20026;-66
2022/05/16 04:08:09;;;;;;;11.07;5.30;;;;;;;15.69;61.28;101185.81;7394061;19;20010;-66
2022/05/16 04:10:38;;;;;;;11.95;5.28;;;;;;;15.55;61.73;101176.06;7392753;19;20030;-66
2022/05/16 04:13:07;;;;;;;11.82;5.40;;;;;;;15.54;61.86;101186.72;7393807;19;20137;-67
2022/05/16 04:15:36;;;;;;;12.07;5.78;;;;;;;15.56;61.95;101171.63;7392980;19;20019;-66
2022/05/16 04:18:05;;;;;;;10.35;5.60;;;;;;;15.50;61.99;101179.91;7393928;19;20347;-67
2022/05/16 04:20:34;;;;;;;12.05;5.70;;;;;;;15.47;62.34;101186.22;7392868;19;20014;-67
2022/05/16 04:23:05;;;;;;;12.27;5.57;;;;;;;15.49;62.36;101179.06;7394261;19;20325;-66
2022/05/16 04:25:34;;;;;;;15.05;6.10;;;;;;;15.39;62.53;101170.00;7393038;19;20018;-65
2022/05/16 04:28:03;;;;;;;13.38;5.80;;;;;;;15.42;62.60;101182.13;7393910;19;20090;-65
2022/05/16 04:30:32;;;;;;;14.68;6.60;;;;;;;15.56;62.46;101188.31;7392325;19;20007;-65
2022/05/16 04:33:01;;;;;;;13.57;5.97;;;;;;;15.54;62.21;101189.34;7393669;19;20011;-65
2022/05/16 04:35:30;;;;;;;10.93;5.60;;;;;;;15.50;62.63;101185.19;7392600;19;20047;-65
2022/05/16 04:37:59;;;;;;;11.07;5.75;;;;;;;15.55;62.61;101168.13;7392952;19;20022;-64
2022/05/16 04:40:31;;;;;;;9.00;6.07;;;;;;;15.67;62.54;101178.91;7392508;19;20490;-64
2022/05/16 04:42:58;;;;;;;13.30;6.28;;;;;;;15.65;62.72;101183.44;7392861;19;20019;-64
2022/05/16 04:45:29;;;;;;;15.15;6.10;;;;;;;15.73;62.25;101183.81;7391537;19;20014;-65
2022/05/16 04:48:01;;;;;;;14.93;7.00;;;;;;;15.75;62.19;101179.31;7390028;19;20014;-63
2022/05/16 04:50:32;;;;;;;12.70;5.97;;;;;;;15.60;62.74;101173.13;7392035;19;20018;-64
2022/05/16 04:53:02;;;;;;;13.18;6.50;;;;;;;15.58;62.70;101177.66;7392232;19;20014;-65
2022/05/16 04:55:35;;;;;;;14.10;6.65;;;;;;;15.60;62.75;101178.41;7391782;19;20094;-64
2022/05/16 04:58:03;;;;;;;12.20;6.35;;;;;;;15.64;62.86;101179.94;7391595;19;20021;-64
2022/05/16 05:00:32;;;;;;;11.77;6.10;;;;;;;15.70;62.71;101184.88;7392112;19;20010;-64
2022/05/16 05:03:02;;;;;;;9.80;6.00;;;;;;;15.73;62.59;101183.81;7399612;19;20018;-63
2022/05/16 05:05:31;;;;;;;12.70;6.20;;;;;;;15.76;62.80;101178.38;7418619;19;20022;-64
2022/05/16 05:08:00;;;;;;;15.02;6.40;;;;;;;15.81;62.71;101180.75;7393008;19;20015;-65
2022/05/16 05:16:01;;;;;;;16.27;6.80;;;;;;;15.79;62.50;101185.25;7391709;19;20413;-64
2022/05/16 05:18:31;;;;;;;13.00;6.60;;;;;;;15.79;62.58;101183.50;7391819;19;20010;-64
2022/05/16 05:21:00;;;;;;;11.90;6.75;;;;;;;15.84;62.35;101193.78;7391441;19;20394;-63
2022/05/16 05:23:29;;;;;;;11.60;6.47;;;;;;;15.83;62.53;101192.94;7390959;19;20332;-65
2022/05/16 05:25:59;;;;;;;15.77;6.90;;;;;;;15.91;62.43;101195.94;7389545;19;20026;-64
2022/05/16 05:28:30;;;;;;;13.13;6.97;;;;;;;16.00;62.07;101193.69;7391205;19;20022;-63
2022/05/16 05:30:59;;;;;;;13.90;7.25;;;;;;;16.01;62.22;101198.03;7389840;19;20025;-63
2022/05/16 05:33:28;;;;;;;16.23;6.72;;;;;;;16.07;61.98;101192.38;7390842;19;20018;-64
2022/05/16 05:35:57;;;;;;;16.20;7.00;;;;;;;16.19;62.08;101188.97;7389945;19;20018;-65
2022/05/16 05:38:26;;;;;;;12.15;6.38;;;;;;;16.25;61.76;101188.59;7390616;19;20010;-64
2022/05/16 05:40:55;;;;;;;13.73;6.68;;;;;;;16.28;61.64;101184.91;7390381;19;20473;-65
2022/05/16 05:43:24;;;;;;;14.48;7.18;;;;;;;16.33;61.21;101185.44;7389575;19;20471;-64
2022/05/16 05:45:55;;;;;;;14.88;7.28;;;;;;;16.48;60.85;101194.22;7390141;19;20022;-64
2022/05/16 05:48:24;;;;;;;29.55;7.85;;;;;;;16.64;61.00;101201.19;7391493;19;20486;-63
2022/05/16 05:50:54;;;;;;;14.45;7.57;;;;;;;16.51;60.76;101201.13;7388897;19;20388;-64
2022/05/16 05:53:23;;;;;;;13.18;6.90;;;;;;;16.51;60.98;101199.31;7390999;19;20624;-64
2022/05/16 05:55:52;;;;;;;12.60;7.22;;;;;;;16.50;61.30;101204.72;7389735;19;20018;-64
2022/05/16 05:58:21;;;;;;;13.55;7.25;;;;;;;16.56;60.86;101199.03;7391740;19;20011;-65
2022/05/16 06:00:51;;;;;;;24.33;8.55;;;;;;;16.67;60.75;101193.06;7397404;19;20015;-64
2022/05/16 06:03:22;;;;;;;12.82;7.22;;;;;;;16.71;61.04;101192.75;7398264;19;20044;-65
2022/05/16 06:05:51;;;;;;;12.45;7.75;;;;;;;16.66;60.87;101196.66;7396473;19;20122;-65
2022/05/16 06:08:20;;;;;;;405.65;38.22;;;;;;;16.67;60.83;101180.66;7398487;19;20013;-65
2022/05/16 06:10:50;;;;;;;15.07;7.68;;;;;;;16.86;60.42;101175.03;7396657;19;20025;-66
2022/05/16 06:13:18;;;;;;;24.02;8.98;;;;;;;16.84;60.32;101174.28;7397772;19;20015;-65
2022/05/16 06:15:48;;;;;;;17.85;8.30;;;;;;;16.91;60.38;101172.97;7396666;19;20036;-66
2022/05/16 06:18:16;;;;;;;17.45;8.32;;;;;;;16.98;60.70;101176.06;7397627;19;20032;-64
2022/05/16 06:20:48;;;;;;;17.77;7.93;;;;;;;16.93;60.79;101176.34;7397408;19;20471;-66
2022/05/16 06:23:17;;;;;;;16.77;8.13;;;;;;;16.88;61.10;101180.28;7397962;19;20483;-65
2022/05/16 06:25:46;;;;;;;17.13;7.75;;;;;;;16.91;61.02;101182.72;7396202;19;20022;-67
2022/05/16 06:28:17;;;;;;;14.82;8.32;;;;;;;16.87;61.23;101194.44;7397960;19;20011;-64
2022/05/16 06:30:48;;;;;;;24.33;8.50;;;;;;;17.00;61.00;101192.69;7396638;19;20026;-65
2022/05/16 06:33:19;;;;;;;16.27;8.48;;;;;;;16.93;61.37;101186.09;7397561;19;20026;-67
2022/05/16 06:35:51;;;;;;;12.18;7.55;;;;;;;16.97;61.24;101184.13;7396300;19;20022;-67
2022/05/16 06:38:21;;;;;;;;;;;;;;;17.02;61.06;101188.16;7398541;19;20010;-66
2022/05/16 06:40:51;;;;;;;16.85;8.38;;;;;;;17.11;61.41;101187.53;7396647;19;20214;-67
2022/05/16 06:43:22;;;;;;;19.50;8.27;;;;;;;17.16;61.15;101200.47;7396908;19;20014;-64
2022/05/16 06:45:52;;;;;;;18.60;9.00;;;;;;;17.07;61.50;101206.41;7395831;19;20015;-64
2022/05/16 06:48:21;;;;;;;16.08;8.90;;;;;;;17.33;61.69;101214.41;7397049;19;20018;-67
2022/05/16 06:50:54;;;;;;;21.67;8.70;;;;;;;17.37;60.87;101211.47;7395786;19;20373;-67
2022/05/16 06:53:24;;;;;;;;;;;;;;;17.30;60.41;101218.94;7396536;19;20015;-66
2022/05/16 06:55:53;;;;;;;16.27;8.10;;;;;;;17.45;60.71;101217.09;7396279;19;20038;-66
2022/05/16 06:58:21;;;;;;;30.55;8.60;;;;;;;17.69;60.51;101213.72;7395922;19;20018;-66
2022/05/16 07:00:50;;;;;;;17.88;7.90;;;;;;;17.85;59.98;101215.34;7397315;19;20007;-67
2022/05/16 07:03:20;;;;;;;14.93;8.43;;;;;;;17.69;59.93;101223.50;7417010;19;20015;-65
2022/05/16 07:05:49;;;;;;;30.45;8.85;;;;;;;17.80;59.78;101226.25;7405975;19;20026;-67
2022/05/16 07:08:22;;;;;;;38.75;9.30;;;;;;;17.76;60.14;101232.72;7397583;19;20357;-67
2022/05/16 07:10:53;;;;;;;69.43;12.90;;;;;;;17.75;60.27;101238.97;7396963;19;20751;-67
2022/05/16 07:13:22;;;;;;;21.02;9.30;;;;;;;17.67;60.10;101249.25;7398521;19;20378;-65
2022/05/16 07:15:51;;;;;;;15.00;8.50;;;;;;;17.81;60.67;101246.53;7395977;19;20018;-67
2022/05/16 07:18:20;;;;;;;16.08;7.95;;;;;;;17.90;59.58;101247.69;7397319;19;20018;-67
2022/05/16 07:20:49;;;;;;;26.30;8.18;;;;;;;18.05;59.83;101248.47;7396355;19;20081;-66
2022/05/16 07:23:21;;;;;;;18.25;8.02;;;;;;;18.03;59.54;101250.38;7396590;19;20022;-68
2022/05/16 07:28:31;;;;;;;15.65;7.45;;;;;;;18.11;59.50;101248.91;7399988;19;20007;-68
2022/05/16 07:31:00;;;;;;;13.65;7.60;;;;;;;18.20;59.58;101252.72;7396104;19;20343;-67
2022/05/16 07:33:29;;;;;;;50.25;11.20;;;;;;;18.24;59.68;101245.38;7397413;19;20029;-68
2022/05/16 07:35:58;;;;;;;17.13;8.02;;;;;;;18.21;59.87;101258.84;7396368;19;20399;-68
2022/05/16 07:38:30;;;;;;;12.77;8.30;;;;;;;18.16;60.16;101261.81;7397498;19;20014;-68
2022/05/16 07:41:00;;;;;;;13.48;7.95;;;;;;;18.26;59.93;101260.22;7395963;19;20019;-68
2022/05/16 07:43:29;;;;;;;17.52;7.90;;;;;;;18.20;60.47;101268.63;7396298;19;20015;-68
2022/05/16 07:45:58;;;;;;;14.85;7.80;;;;;;;18.23;60.34;101271.06;7395320;19;20018;-68
2022/05/16 07:48:27;;;;;;;17.65;8.05;;;;;;;18.21;60.53;101280.06;7396268;19;20018;-67
2022/05/16 07:50:56;;;;;;;17.20;8.40;;;;;;;18.01;63.30;101287.63;7394766;19;20029;-68
2022/05/16 07:53:25;;;;;;;21.88;9.10;;;;;;;17.91;66.27;101300.66;7396340;19;20015;-69
2022/05/16 07:55:59;;;;;;;13.68;8.88;;;;;;;17.89;66.43;101301.66;7393742;19;20006;-68
2022/05/16 07:58:28;;;;;;;20.42;9.48;;;;;;;17.96;64.94;101297.66;7396200;19;20019;-68
2022/05/16 08:00:58;;;;;;;15.38;8.50;;;;;;;18.05;65.93;101288.25;7396155;19;20353;-68
2022/05/16 08:03:29;;;;;;;15.95;8.88;;;;;;;18.17;66.85;101295.38;7399068;19;20018;-66
2022/05/16 08:05:59;;;;;;;22.02;9.77;;;;;;;18.24;66.11;101293.97;7395259;19;20014;-67
2022/05/16 08:11:14;;;;;;;14.45;8.75;;;;;;;18.44;65.47;101289.94;7395400;19;20015;-67
2022/05/16 08:13:44;;;;;;;16.00;8.60;;;;;;;18.32;62.49;101296.09;7393285;19;20021;-65
2022/05/16 08:16:14;;;;;;;16.67;8.25;;;;;;;18.43;63.45;101295.34;7391249;19;20010;-66
2022/05/16 08:18:43;;;;;;;20.65;8.63;;;;;;;18.50;63.16;101297.47;7393624;19;20017;-66
2022/05/16 08:21:12;;;;;;;13.23;7.75;;;;;;;18.56;61.26;101295.34;7392447;19;20344;-65
2022/05/16 08:23:42;;;;;;;12.90;7.85;;;;;;;18.69;60.90;101293.50;7392134;19;20043;-66
2022/05/16 08:26:13;;;;;;;26.08;7.90;;;;;;;18.83;60.54;101298.69;7392791;19;20015;-66
2022/05/16 08:28:42;;;;;;;14.30;7.63;;;;;;;18.91;60.76;101284.03;7395222;19;20022;-66
2022/05/16 08:31:11;;;;;;;14.40;7.60;;;;;;;19.05;60.89;101294.50;7393266;19;20015;-66
2022/05/16 08:33:42;;;;;;;10.98;7.28;;;;;;;19.07;60.66;101292.59;7393567;19;20010;-66
2022/05/16 08:41:53;;;;;;;13.13;6.47;;;;;;;19.13;59.72;101308.09;7391396;19;20019;-66
2022/05/16 08:44:25;;;;;;;18.27;7.07;;;;;;;19.32;60.91;101310.22;7394461;19;20015;-66
2022/05/16 08:47:05;;;;;;;17.38;7.25;;;;;;;19.29;60.18;101309.63;7390990;19;20472;-67
2022/05/16 08:49:39;;;;;;;14.50;7.40;;;;;;;19.23;60.57;101300.28;7393167;19;20014;-67
2022/05/16 08:52:14;;;;;;;15.80;7.47;;;;;;;19.30;61.25;101301.53;7393479;19;20336;-65
2022/05/16 08:54:49;;;;;;;13.27;7.38;;;;;;;19.34;61.00;101305.69;7394287;19;20018;-67
2022/05/16 08:57:30;;;;;;;13.88;7.10;;;;;;;19.47;61.25;101308.28;7396106;19;20471;-66
2022/05/16 09:00:05;;;;;;;25.13;7.63;;;;;;;19.54;61.23;101305.97;7395434;19;20413;-66
2022/05/16 09:02:36;;;;;;;11.88;6.95;;;;;;;19.67;61.07;101305.91;7415743;19;20014;-66
2022/05/16 09:05:17;;;;;;;12.98;6.97;;;;;;;19.85;59.91;101309.03;7402504;19;20029;-66
2022/05/16 09:07:51;;;;;;;12.80;7.57;;;;;;;20.09;59.40;101308.13;7394774;19;20357;-66
2022/05/16 09:10:23;;;;;;;16.25;8.05;;;;;;;20.11;59.29;101304.38;7392130;19;20015;-67
2022/05/16 09:13:04;;;;;;;9.30;6.70;;;;;;;20.13;60.19;101299.81;7390461;19;20022;-66
2022/05/16 09:15:40;;;;;;;12.85;7.00;;;;;;;20.80;58.37;101300.78;7392030;19;20018;-66
2022/05/16 09:18:24;;;;;;;15.65;6.38;;;;;;;20.97;56.19;101298.59;7392283;19;20039;-66
2022/05/16 09:21:03;;;;;;;11.98;6.45;;;;;;;20.85;55.29;101298.63;7391517;19;20096;-65
2022/05/16 09:23:45;;;;;;;14.10;6.70;;;;;;;20.89;56.48;101304.53;7392403;19;20014;-64
2022/05/16 09:26:27;;;;;;;9.38;6.15;;;;;;;20.75;56.23;101297.66;7392037;19;20503;-65
2022/05/16 09:29:04;;;;;;;13.63;6.50;;;;;;;20.88;55.22;101300.19;7395801;19;20022;-64
2022/05/16 09:31:42;;;;;;;15.88;6.55;;;;;;;21.16;55.19;101306.81;7396169;19;20471;-66
2022/05/16 09:34:12;;;;;;;12.05;5.80;;;;;;;21.81;53.53;101308.63;7391296;19;20018;-65
2022/05/16 09:36:43;;;;;;;13.75;5.68;;;;;;;21.94;52.73;101315.47;7392377;19;20026;-65
2022/05/16 09:39:13;;;;;;;11.55;5.80;;;;;;;21.40;53.68;101311.09;7394673;19;20042;-65
2022/05/16 09:41:46;;;;;;;9.68;5.95;;;;;;;21.47;53.62;101317.59;7396506;19;20018;-66
2022/05/16 09:44:26;;;;;;;11.82;6.43;;;;;;;21.26;54.12;101302.41;7392755;19;20014;-65
2022/05/16 09:47:40;;;;;;;7.65;5.57;;;;;;;21.17;54.00;101308.47;7392494;19;20014;-65
2022/05/16 09:50:23;;;;;;;10.70;6.22;;;;;;;21.39;54.13;101307.59;7391882;19;20622;-66
2022/05/16 09:52:53;;;;;;;;;;;;;;;21.21;54.83;101311.75;7393611;19;20374;-65
2022/05/16 09:55:29;;;;;;;14.98;6.32;;;;;;;21.08;55.33;101311.91;7390914;19;19990;-64
2022/05/16 09:58:01;;;;;;;12.93;5.70;;;;;;;21.02;56.44;101302.59;7389960;19;20018;-64
2022/05/16 10:00:42;;;;;;;19.73;6.18;;;;;;;21.37;55.72;101309.50;7390288;19;20026;-64
2022/05/16 10:03:29;;;;;;;20.40;6.80;;;;;;;21.99;54.04;101312.41;7391338;19;20022;-65
2022/05/16 10:06:01;;;;;;;12.73;5.95;;;;;;;21.85;53.87;101307.41;7390583;19;20011;-67
2022/05/16 10:08:33;;;;;;;13.98;6.47;;;;;;;21.95;52.50;101298.50;7398145;19;20014;-68
2022/05/16 10:11:03;;;;;;;;;;;;;;;21.87;53.01;101305.47;7391262;19;20480;-66
2022/05/16 10:13:33;;;;;;;12.15;6.82;;;;;;;21.77;52.94;101311.56;7394868;19;19929;-66
2022/05/16 10:16:10;;;;;;;14.45;6.00;;;;;;;22.45;51.91;101307.63;7392185;19;20018;-65
2022/05/16 10:18:45;;;;;;;12.43;5.75;;;;;;;22.21;52.62;101314.09;7394330;19;20010;-64
2022/05/16 10:21:21;;;;;;;74.43;9.85;;;;;;;22.37;53.40;101310.97;7398106;19;20010;-65
2022/05/16 10:23:50;;;;;;;8.98;5.85;;;;;;;22.27;52.85;101318.06;7394287;19;20117;-67
2022/05/16 10:26:23;;;;;;;11.80;5.63;;;;;;;21.92;54.06;101311.22;7393378;19;20018;-67
2022/05/16 10:28:54;;;;;;;;;;;;;;;22.15;54.13;101316.44;7394920;19;20110;-67
2022/05/16 10:34:25;;;;;;;15.98;5.95;;;;;;;22.61;51.79;101301.81;7399547;19;20592;-66
2022/05/16 10:36:57;;;;;;;10.65;5.10;;;;;;;22.98;50.53;101306.53;7401216;19;20551;-66
2022/05/16 10:39:28;;;;;;;13.93;5.18;;;;;;;22.76;50.57;101303.13;7394297;19;20365;-67
2022/05/16 10:42:02;;;;;;;10.73;5.28;;;;;;;22.70;50.82;101314.34;7389971;19;20539;-65
2022/05/16 10:44:39;;;;;;;9.52;4.68;;;;;;;22.67;51.98;101319.09;7389412;19;20018;-66
2022/05/16 10:47:18;;;;;;;8.02;4.78;;;;;;;22.53;51.53;101328.34;7397615;19;20014;-66
2022/05/16 10:49:57;;;;;;;9.18;5.13;;;;;;;22.59;51.28;101336.66;7399137;19;20011;-66
2022/05/16 10:52:35;;;;;;;8.18;4.90;;;;;;;22.86;50.56;101339.72;7398540;19;20014;-66
2022/05/16 10:55:04;;;;;;;8.43;5.05;;;;;;;22.70;51.10;101346.41;7398639;19;20355;-66
2022/05/16 10:58:04;;;;;;;11.02;5.20;;;;;;;22.64;50.97;101338.94;7399431;19;20011;-66
2022/05/16 11:00:37;;;;;;;11.43;5.15;;;;;;;22.73;50.64;101338.13;7411610;19;20010;-63
2022/05/16 11:03:53;;;;;;;7.97;4.40;;;;;;;23.21;50.67;101346.44;7419124;19;20029;-64
2022/05/16 11:06:42;;;;;;;5.85;5.00;;;;;;;23.27;50.11;101341.41;7393034;19;20484;-65
2022/05/16 11:09:18;;;;;;;9.13;4.90;;;;;;;23.95;48.43;101337.06;7396572;19;20013;-65
2022/05/16 11:12:08;;;;;;;12.57;4.68;;;;;;;24.35;48.24;101341.34;7397059;19;20035;-66
2022/05/16 11:14:46;;;;;;;6.20;4.55;;;;;;;23.78;47.77;101331.41;7397363;19;20049;-65
2022/05/16 11:17:24;;;;;;;8.98;5.15;;;;;;;23.42;48.34;101333.81;7397085;19;20014;-66
2022/05/16 11:20:04;;;;;;;11.07;4.85;;;;;;;23.39;48.24;101333.25;7395540;19;20018;-65
2022/05/16 11:22:39;;;;;;;30.27;6.63;;;;;;;23.58;48.84;101333.25;7396676;19;20019;-66
2022/05/16 11:25:13;;;;;;;10.60;5.35;;;;;;;23.49;48.58;101336.78;7395461;19;20018;-66
2022/05/16 11:27:58;;;;;;;28.95;6.45;;;;;;;23.47;48.88;101339.59;7396293;19;20371;-65
2022/05/16 11:30:37;;;;;;;55.60;9.20;;;;;;;23.25;49.76;101334.50;7395337;19;20025;-65
2022/05/16 11:33:14;;;;;;;14.95;6.68;;;;;;;23.14;50.81;101325.63;7394553;19;20014;-65
2022/05/16 11:35:49;;;;;;;11.63;7.07;;;;;;;22.86;49.87;101329.88;7394196;19;20026;-66
2022/05/16 11:38:27;;;;;;;18.35;8.65;;;;;;;22.84;49.74;101330.97;7394514;19;20484;-65
2022/05/16 11:41:08;;;;;;;11.88;7.53;;;;;;;22.76;50.61;101332.50;7394939;19;20018;-66
2022/05/16 11:43:42;;;;;;;168.63;33.88;;;;;;;22.86;51.84;101340.56;7395547;19;20015;-67
2022/05/16 11:46:27;;;;;;;138.13;23.95;;;;;;;22.89;51.50;101342.94;7393621;19;20381;-66
2022/05/16 11:49:13;;;;;;;140.63;22.80;;;;;;;22.99;52.26;101338.47;7394438;19;20484;-66
2022/05/16 11:51:57;;;;;;;12.27;6.72;;;;;;;23.06;50.97;101343.28;7394145;19;20018;-66
2022/05/16 11:54:31;;;;;;;337.50;50.17;;;;;;;22.94;52.37;101355.94;7392251;19;20024;-67
2022/05/16 12:02:47;;;;;;;22.10;7.40;;;;;;;20.36;83.67;101396.50;7401055;19;20026;-66
2022/05/16 12:05:34;;;;;;;17.02;6.88;;;;;;;20.30;89.63;101396.97;7398183;19;20019;-66
2022/05/16 12:08:18;;;;;;;19.52;10.75;;;;;;;20.02;88.39;101412.34;7397845;19;20049;-66
2022/05/16 12:11:00;;;;;;;24.40;13.55;;;;;;;20.25;83.13;101399.13;7394442;19;20070;-65
2022/05/16 12:13:33;;;;;;;33.58;14.63;;;;;;;20.43;79.23;101407.53;7396692;19;20017;-66
2022/05/16 12:16:19;;;;;;;20.98;11.43;;;;;;;21.06;76.56;101401.78;7394448;19;20050;-66
2022/05/16 12:18:50;;;;;;;24.70;11.98;;;;;;;21.07;78.24;101409.63;7397364;19;20029;-65